»·PEaware :: N74TP KLAX-KSNA

N74TP :: KLAX-KSNA

FLIGHT INFORMATION

Flight Status: Arrived
Operator: Privately registered:
United States
More flights under this callsign
Pilot: Matteo M. (13094)
Aircraft: BEECH AIRCRAFT BEECH AIRLINER
(B190)
More flights by this aircraft type
Origin: KLAX Los Angeles Intl
United States
Destination: KSNA John Wayne-Orange Co
United States
More flights between these airports :: More routes between these airports
Route: +SLI8 SLI
File this flight plan on PilotEdge
Remarks: LAXN34
Altitude:
(Current/Filed)
5,000ft
Speed:
(Current/Filed)
220kts
Departed: 10-Apr-18 07:57 PM
Arrived: 10-Apr-18 08:30 PM
Distance/Time
Traveled:
31nm/0:33
Distance/Time
To Go:
Arrived

Flight Plot

Page will automatically refresh every two minutes.

Flight plan parsing failed; only flown route is shown


Map Options




Map Legend


Flown Route
Filed Route
Departure Airport
Arrival Airport
Navaid (VOR, NDB)
Fix

Horizontal Profiles

Position Reports

Time Latitude Longitude Heading Altitude Ground
Speed
10-Apr-18 19:34 33.933619 -118.399829 174 108ft 0kts
10-Apr-18 19:35 33.933619 -118.399829 174 108ft 0kts
10-Apr-18 19:36 33.933619 -118.399829 174 108ft 0kts
10-Apr-18 19:37 33.933619 -118.399829 174 108ft 0kts
10-Apr-18 19:38 33.933619 -118.399829 174 108ft 0kts
10-Apr-18 19:39 33.933619 -118.399829 174 108ft 0kts
10-Apr-18 19:40 33.933619 -118.399829 174 108ft 0kts
10-Apr-18 19:41 33.933619 -118.399829 174 108ft 0kts
10-Apr-18 19:42 33.933619 -118.399829 174 108ft 0kts
10-Apr-18 19:43 33.933619 -118.399829 174 108ft 0kts
10-Apr-18 19:44 33.933619 -118.399829 174 108ft 0kts
10-Apr-18 19:45 33.933619 -118.399829 174 108ft 0kts
10-Apr-18 19:46 33.933619 -118.399829 174 108ft 0kts
10-Apr-18 19:47 33.933619 -118.399829 174 108ft 0kts
10-Apr-18 19:48 33.933619 -118.399829 174 108ft 0kts
10-Apr-18 19:49 33.933685 -118.398961 49 108ft 11kts
10-Apr-18 19:50 33.935108 -118.392935 84 108ft 24kts
10-Apr-18 19:51 33.935934 -118.384720 82 108ft 24kts
10-Apr-18 19:52 33.936479 -118.382947 54 108ft 0kts
10-Apr-18 19:53 33.936479 -118.382947 54 108ft 0kts
10-Apr-18 19:54 33.936479 -118.382947 54 108ft 0kts
10-Apr-18 19:55 33.936624 -118.382792 25 108ft 10kts
10-Apr-18 19:56 33.934297 -118.410546 261 1161ft 148kts
10-Apr-18 19:57 33.918964 -118.460368 214 2968ft 186kts
10-Apr-18 19:58 33.872023 -118.493815 212 3851ft 192kts
10-Apr-18 19:59 33.824837 -118.526228 212 4700ft 196kts
10-Apr-18 20:00 33.774759 -118.559751 212 4978ft 215kts
10-Apr-18 20:01 33.726110 -118.566922 126 5006ft 201kts
10-Apr-18 20:02 33.700513 -118.508361 120 4989ft 194kts
10-Apr-18 20:03 33.675903 -118.450242 120 4932ft 200kts
10-Apr-18 20:04 33.649711 -118.388827 120 4928ft 212kts
10-Apr-18 20:05 33.622434 -118.325116 120 4927ft 215kts
10-Apr-18 20:06 33.596693 -118.260416 94 4902ft 219kts
10-Apr-18 20:07 33.634353 -118.207823 39 4216ft 212kts
10-Apr-18 20:08 33.677630 -118.163936 39 3914ft 190kts
10-Apr-18 20:09 33.717186 -118.124954 39 3969ft 177kts
10-Apr-18 20:10 33.753343 -118.086649 57 3983ft 171kts
10-Apr-18 20:11 33.782731 -118.041808 49 3981ft 169kts
10-Apr-18 20:12 33.807903 -117.994709 63 3990ft 168kts
10-Apr-18 20:13 33.828851 -117.944260 63 3995ft 168kts
10-Apr-18 20:14 33.849207 -117.893651 63 4000ft 168kts
10-Apr-18 20:15 33.869302 -117.842920 63 4002ft 168kts
10-Apr-18 20:16 33.889211 -117.792242 63 4003ft 168kts
10-Apr-18 20:17 33.909034 -117.741561 63 4002ft 166kts
10-Apr-18 20:18 33.938633 -117.701450 35 4006ft 162kts
10-Apr-18 20:19 33.978150 -117.687230 315 3905ft 155kts
10-Apr-18 20:20 33.965535 -117.716619 162 3365ft 151kts
10-Apr-18 20:21 33.930392 -117.707183 205 3500ft 117kts
10-Apr-18 20:22 33.896220 -117.726765 209 3248ft 154kts
10-Apr-18 20:23 33.861905 -117.748178 210 3399ft 132kts
10-Apr-18 20:24 33.828609 -117.769638 210 3367ft 137kts
10-Apr-18 20:25 33.795085 -117.791687 209 2560ft 126kts
10-Apr-18 20:26 33.764414 -117.811274 208 1936ft 125kts
10-Apr-18 20:27 33.732896 -117.831658 208 1229ft 132kts
10-Apr-18 20:28 33.700725 -117.852884 208 568ft 124kts
10-Apr-18 20:29 33.674369 -117.869788 232 61ft 26kts
10-Apr-18 20:30 33.675161 -117.871470 20 61ft 0kts

Navigation Log

Ident Type
Flight plan parsing failed, navigation log unavailable